sensor_id;sensor_type;location;lat;lon;timestamp;P1;durP1;ratioP1;P2;durP2;ratioP2
20181;SDS011;10250;50.756;6.172;2023-01-19T00:00:17;7.20;;;2.07;;
20181;SDS011;10250;50.756;6.172;2023-01-19T00:02:18;9.73;;;2.70;;
20181;SDS011;10250;50.756;6.172;2023-01-19T00:04:19;9.97;;;2.57;;
20181;SDS011;10250;50.756;6.172;2023-01-19T00:06:20;7.30;;;2.10;;
20181;SDS011;10250;50.756;6.172;2023-01-19T00:08:21;8.10;;;2.07;;
20181;SDS011;10250;50.756;6.172;2023-01-19T00:10:22;8.20;;;2.00;;
20181;SDS011;10250;50.756;6.172;2023-01-19T00:12:23;6.70;;;2.27;;
20181;SDS011;10250;50.756;6.172;2023-01-19T00:14:24;8.07;;;1.77;;
20181;SDS011;10250;50.756;6.172;2023-01-19T00:16:25;7.73;;;2.23;;
20181;SDS011;10250;50.756;6.172;2023-01-19T00:18:26;9.57;;;2.50;;
20181;SDS011;10250;50.756;6.172;2023-01-19T00:20:27;5.70;;;1.90;;
20181;SDS011;10250;50.756;6.172;2023-01-19T00:22:31;7.13;;;2.17;;
20181;SDS011;10250;50.756;6.172;2023-01-19T00:24:32;9.27;;;2.43;;
20181;SDS011;10250;50.756;6.172;2023-01-19T00:26:33;9.53;;;2.50;;
20181;SDS011;10250;50.756;6.172;2023-01-19T00:28:34;3.77;;;1.53;;
20181;SDS011;10250;50.756;6.172;2023-01-19T00:30:35;8.47;;;2.03;;
20181;SDS011;10250;50.756;6.172;2023-01-19T00:32:36;6.27;;;1.70;;
20181;SDS011;10250;50.756;6.172;2023-01-19T00:34:37;7.27;;;2.07;;
20181;SDS011;10250;50.756;6.172;2023-01-19T00:36:41;11.03;;;2.13;;
20181;SDS011;10250;50.756;6.172;2023-01-19T00:38:42;6.33;;;1.97;;
20181;SDS011;10250;50.756;6.172;2023-01-19T00:40:43;6.80;;;2.13;;
20181;SDS011;10250;50.756;6.172;2023-01-19T00:42:44;7.30;;;1.93;;
20181;SDS011;10250;50.756;6.172;2023-01-19T00:44:47;5.80;;;2.03;;
20181;SDS011;10250;50.756;6.172;2023-01-19T00:46:48;7.07;;;1.70;;
20181;SDS011;10250;50.756;6.172;2023-01-19T00:48:49;4.90;;;1.53;;
20181;SDS011;10250;50.756;6.172;2023-01-19T00:50:50;7.07;;;2.00;;
20181;SDS011;10250;50.756;6.172;2023-01-19T00:52:51;7.80;;;2.10;;
20181;SDS011;10250;50.756;6.172;2023-01-19T00:54:52;5.73;;;1.70;;
20181;SDS011;10250;50.756;6.172;2023-01-19T00:56:53;6.63;;;1.83;;
20181;SDS011;10250;50.756;6.172;2023-01-19T00:58:54;5.60;;;1.50;;
20181;SDS011;10250;50.756;6.172;2023-01-19T01:00:55;8.53;;;2.43;;
20181;SDS011;10250;50.756;6.172;2023-01-19T01:03:02;8.80;;;2.20;;
20181;SDS011;10250;50.756;6.172;2023-01-19T01:05:03;9.33;;;2.40;;
20181;SDS011;10250;50.756;6.172;2023-01-19T01:07:05;5.47;;;1.57;;
20181;SDS011;10250;50.756;6.172;2023-01-19T01:09:06;8.13;;;1.93;;
20181;SDS011;10250;50.756;6.172;2023-01-19T01:11:10;5.40;;;1.63;;
20181;SDS011;10250;50.756;6.172;2023-01-19T01:13:11;6.63;;;2.10;;
20181;SDS011;10250;50.756;6.172;2023-01-19T01:15:13;9.67;;;2.17;;
20181;SDS011;10250;50.756;6.172;2023-01-19T01:17:14;7.67;;;1.90;;
20181;SDS011;10250;50.756;6.172;2023-01-19T01:19:15;6.87;;;1.63;;
20181;SDS011;10250;50.756;6.172;2023-01-19T01:21:16;8.27;;;2.03;;
20181;SDS011;10250;50.756;6.172;2023-01-19T01:23:17;11.57;;;2.47;;
20181;SDS011;10250;50.756;6.172;2023-01-19T01:25:22;7.67;;;2.10;;
20181;SDS011;10250;50.756;6.172;2023-01-19T01:27:23;7.20;;;2.43;;
20181;SDS011;10250;50.756;6.172;2023-01-19T01:29:24;9.10;;;2.37;;
20181;SDS011;10250;50.756;6.172;2023-01-19T01:31:25;7.23;;;1.80;;
20181;SDS011;10250;50.756;6.172;2023-01-19T01:33:26;6.40;;;1.83;;
20181;SDS011;10250;50.756;6.172;2023-01-19T01:35:27;6.23;;;2.00;;
20181;SDS011;10250;50.756;6.172;2023-01-19T01:37:28;8.43;;;2.03;;
20181;SDS011;10250;50.756;6.172;2023-01-19T01:39:29;6.23;;;2.07;;
20181;SDS011;10250;50.756;6.172;2023-01-19T01:41:30;5.37;;;2.00;;
20181;SDS011;10250;50.756;6.172;2023-01-19T01:45:42;7.23;;;1.90;;
20181;SDS011;10250;50.756;6.172;2023-01-19T01:47:44;8.50;;;2.20;;
20181;SDS011;10250;50.756;6.172;2023-01-19T01:49:46;8.30;;;2.30;;
20181;SDS011;10250;50.756;6.172;2023-01-19T01:51:49;9.30;;;2.43;;
20181;SDS011;10250;50.756;6.172;2023-01-19T01:53:52;7.27;;;2.50;;
20181;SDS011;10250;50.756;6.172;2023-01-19T01:55:55;8.60;;;2.30;;
20181;SDS011;10250;50.756;6.172;2023-01-19T01:57:57;5.23;;;1.80;;
20181;SDS011;10250;50.756;6.172;2023-01-19T01:59:59;7.67;;;2.47;;
20181;SDS011;10250;50.756;6.172;2023-01-19T02:02:00;5.57;;;1.67;;
20181;SDS011;10250;50.756;6.172;2023-01-19T02:04:21;7.30;;;2.00;;
20181;SDS011;10250;50.756;6.172;2023-01-19T02:06:22;9.33;;;2.27;;
20181;SDS011;10250;50.756;6.172;2023-01-19T02:08:27;9.57;;;2.13;;
20181;SDS011;10250;50.756;6.172;2023-01-19T02:10:49;5.43;;;1.73;;
20181;SDS011;10250;50.756;6.172;2023-01-19T02:13:09;9.03;;;1.87;;
20181;SDS011;10250;50.756;6.172;2023-01-19T02:15:17;4.83;;;1.70;;
20181;SDS011;10250;50.756;6.172;2023-01-19T02:17:19;8.73;;;2.40;;
20181;SDS011;10250;50.756;6.172;2023-01-19T02:19:21;7.87;;;2.23;;
20181;SDS011;10250;50.756;6.172;2023-01-19T02:21:26;6.43;;;2.17;;
20181;SDS011;10250;50.756;6.172;2023-01-19T02:23:32;8.73;;;1.97;;
20181;SDS011;10250;50.756;6.172;2023-01-19T02:25:34;11.50;;;2.10;;
20181;SDS011;10250;50.756;6.172;2023-01-19T02:27:35;8.10;;;2.10;;
20181;SDS011;10250;50.756;6.172;2023-01-19T02:29:36;6.67;;;1.90;;
20181;SDS011;10250;50.756;6.172;2023-01-19T02:31:38;7.67;;;2.20;;
20181;SDS011;10250;50.756;6.172;2023-01-19T02:33:39;7.17;;;2.27;;
20181;SDS011;10250;50.756;6.172;2023-01-19T02:35:40;8.40;;;2.47;;
20181;SDS011;10250;50.756;6.172;2023-01-19T02:37:42;8.00;;;1.90;;
20181;SDS011;10250;50.756;6.172;2023-01-19T02:39:53;8.00;;;2.07;;
20181;SDS011;10250;50.756;6.172;2023-01-19T02:41:58;7.37;;;1.93;;
20181;SDS011;10250;50.756;6.172;2023-01-19T02:44:01;8.97;;;1.90;;
20181;SDS011;10250;50.756;6.172;2023-01-19T02:46:02;9.57;;;2.13;;
20181;SDS011;10250;50.756;6.172;2023-01-19T02:48:04;8.03;;;2.23;;
20181;SDS011;10250;50.756;6.172;2023-01-19T02:50:05;5.60;;;1.70;;
20181;SDS011;10250;50.756;6.172;2023-01-19T02:52:26;5.73;;;1.83;;
20181;SDS011;10250;50.756;6.172;2023-01-19T03:01:18;5.83;;;1.80;;
20181;SDS011;10250;50.756;6.172;2023-01-19T03:03:28;7.57;;;2.07;;
20181;SDS011;10250;50.756;6.172;2023-01-19T03:05:32;7.83;;;2.00;;
20181;SDS011;10250;50.756;6.172;2023-01-19T03:10:02;5.87;;;1.70;;
20181;SDS011;10250;50.756;6.172;2023-01-19T03:12:07;5.80;;;1.77;;
20181;SDS011;10250;50.756;6.172;2023-01-19T03:14:10;8.27;;;2.07;;
20181;SDS011;10250;50.756;6.172;2023-01-19T03:18:13;5.60;;;1.90;;
20181;SDS011;10250;50.756;6.172;2023-01-19T03:20:17;7.93;;;2.47;;
20181;SDS011;10250;50.756;6.172;2023-01-19T03:22:21;7.87;;;1.90;;
20181;SDS011;10250;50.756;6.172;2023-01-19T03:24:24;6.63;;;1.87;;
20181;SDS011;10250;50.756;6.172;2023-01-19T03:26:28;6.53;;;1.83;;
20181;SDS011;10250;50.756;6.172;2023-01-19T03:28:30;5.63;;;1.63;;
20181;SDS011;10250;50.756;6.172;2023-01-19T03:30:33;11.53;;;2.00;;
20181;SDS011;10250;50.756;6.172;2023-01-19T03:32:40;9.27;;;2.37;;
20181;SDS011;10250;50.756;6.172;2023-01-19T03:34:42;7.20;;;2.13;;
20181;SDS011;10250;50.756;6.172;2023-01-19T03:36:52;13.97;;;2.90;;
20181;SDS011;10250;50.756;6.172;2023-01-19T03:38:54;6.70;;;2.13;;
20181;SDS011;10250;50.756;6.172;2023-01-19T03:40:57;9.33;;;2.60;;
20181;SDS011;10250;50.756;6.172;2023-01-19T03:42:59;12.10;;;2.43;;
20181;SDS011;10250;50.756;6.172;2023-01-19T03:45:02;8.23;;;2.03;;
20181;SDS011;10250;50.756;6.172;2023-01-19T03:47:03;8.70;;;2.20;;
20181;SDS011;10250;50.756;6.172;2023-01-19T03:49:06;8.00;;;2.23;;
20181;SDS011;10250;50.756;6.172;2023-01-19T03:51:08;11.70;;;2.30;;
20181;SDS011;10250;50.756;6.172;2023-01-19T03:55:10;5.87;;;1.83;;
20181;SDS011;10250;50.756;6.172;2023-01-19T03:57:12;9.47;;;2.53;;
20181;SDS011;10250;50.756;6.172;2023-01-19T03:59:13;8.23;;;2.30;;
20181;SDS011;10250;50.756;6.172;2023-01-19T04:01:16;10.93;;;3.00;;
20181;SDS011;10250;50.756;6.172;2023-01-19T04:03:21;7.83;;;2.43;;
20181;SDS011;10250;50.756;6.172;2023-01-19T04:05:22;9.20;;;2.13;;
20181;SDS011;10250;50.756;6.172;2023-01-19T04:07:23;5.97;;;1.90;;
20181;SDS011;10250;50.756;6.172;2023-01-19T04:09:24;8.83;;;2.47;;
20181;SDS011;10250;50.756;6.172;2023-01-19T04:11:26;7.60;;;2.30;;
20181;SDS011;10250;50.756;6.172;2023-01-19T04:13:27;9.60;;;2.50;;
20181;SDS011;10250;50.756;6.172;2023-01-19T04:15:29;7.60;;;2.20;;
20181;SDS011;10250;50.756;6.172;2023-01-19T04:17:30;9.93;;;2.43;;
20181;SDS011;10250;50.756;6.172;2023-01-19T04:19:31;7.83;;;1.93;;
20181;SDS011;10250;50.756;6.172;2023-01-19T04:21:32;8.53;;;2.73;;
20181;SDS011;10250;50.756;6.172;2023-01-19T04:23:34;7.70;;;2.37;;
20181;SDS011;10250;50.756;6.172;2023-01-19T04:25:35;7.10;;;2.10;;
20181;SDS011;10250;50.756;6.172;2023-01-19T04:27:36;9.80;;;2.60;;
20181;SDS011;10250;50.756;6.172;2023-01-19T04:29:37;9.30;;;2.83;;
20181;SDS011;10250;50.756;6.172;2023-01-19T04:31:38;7.83;;;1.83;;
20181;SDS011;10250;50.756;6.172;2023-01-19T04:33:38;8.23;;;2.10;;
20181;SDS011;10250;50.756;6.172;2023-01-19T04:35:39;8.60;;;2.00;;
20181;SDS011;10250;50.756;6.172;2023-01-19T04:37:41;8.00;;;2.30;;
20181;SDS011;10250;50.756;6.172;2023-01-19T04:39:43;10.63;;;2.83;;
20181;SDS011;10250;50.756;6.172;2023-01-19T04:41:44;8.90;;;2.50;;
20181;SDS011;10250;50.756;6.172;2023-01-19T04:43:45;8.10;;;2.43;;
20181;SDS011;10250;50.756;6.172;2023-01-19T04:45:47;8.13;;;2.40;;
20181;SDS011;10250;50.756;6.172;2023-01-19T04:47:48;10.10;;;2.47;;
20181;SDS011;10250;50.756;6.172;2023-01-19T04:49:50;7.63;;;2.03;;
20181;SDS011;10250;50.756;6.172;2023-01-19T04:51:53;6.50;;;1.67;;
20181;SDS011;10250;50.756;6.172;2023-01-19T04:53:54;7.27;;;2.30;;
20181;SDS011;10250;50.756;6.172;2023-01-19T04:55:56;13.47;;;2.43;;
20181;SDS011;10250;50.756;6.172;2023-01-19T04:57:58;9.37;;;2.43;;
20181;SDS011;10250;50.756;6.172;2023-01-19T04:59:59;9.43;;;2.40;;
20181;SDS011;10250;50.756;6.172;2023-01-19T05:02:00;7.67;;;2.63;;
20181;SDS011;10250;50.756;6.172;2023-01-19T05:04:01;12.53;;;2.77;;
20181;SDS011;10250;50.756;6.172;2023-01-19T05:06:05;8.93;;;2.47;;
20181;SDS011;10250;50.756;6.172;2023-01-19T05:08:06;9.17;;;2.70;;
20181;SDS011;10250;50.756;6.172;2023-01-19T05:10:07;7.27;;;2.20;;
20181;SDS011;10250;50.756;6.172;2023-01-19T05:12:09;9.33;;;2.63;;
20181;SDS011;10250;50.756;6.172;2023-01-19T05:14:10;12.10;;;2.70;;
20181;SDS011;10250;50.756;6.172;2023-01-19T05:16:11;8.33;;;2.20;;
20181;SDS011;10250;50.756;6.172;2023-01-19T05:18:13;11.67;;;2.63;;
20181;SDS011;10250;50.756;6.172;2023-01-19T05:20:14;6.53;;;2.13;;
20181;SDS011;10250;50.756;6.172;2023-01-19T05:22:16;9.57;;;2.43;;
20181;SDS011;10250;50.756;6.172;2023-01-19T05:24:17;9.03;;;2.57;;
20181;SDS011;10250;50.756;6.172;2023-01-19T05:26:18;8.30;;;2.37;;
20181;SDS011;10250;50.756;6.172;2023-01-19T05:28:19;10.13;;;2.70;;
20181;SDS011;10250;50.756;6.172;2023-01-19T05:30:20;10.13;;;2.90;;
20181;SDS011;10250;50.756;6.172;2023-01-19T05:32:21;7.17;;;2.17;;
20181;SDS011;10250;50.756;6.172;2023-01-19T05:34:22;10.60;;;2.40;;
20181;SDS011;10250;50.756;6.172;2023-01-19T05:36:23;10.13;;;2.63;;
20181;SDS011;10250;50.756;6.172;2023-01-19T05:38:24;8.53;;;2.80;;
20181;SDS011;10250;50.756;6.172;2023-01-19T05:40:25;9.53;;;2.20;;
20181;SDS011;10250;50.756;6.172;2023-01-19T05:42:27;10.10;;;2.30;;
20181;SDS011;10250;50.756;6.172;2023-01-19T05:44:28;10.97;;;2.67;;
20181;SDS011;10250;50.756;6.172;2023-01-19T05:46:29;9.40;;;2.27;;
20181;SDS011;10250;50.756;6.172;2023-01-19T05:48:30;12.00;;;2.73;;
20181;SDS011;10250;50.756;6.172;2023-01-19T05:50:31;9.10;;;2.70;;
20181;SDS011;10250;50.756;6.172;2023-01-19T05:52:35;8.93;;;2.47;;
20181;SDS011;10250;50.756;6.172;2023-01-19T05:54:39;11.33;;;2.57;;
20181;SDS011;10250;50.756;6.172;2023-01-19T05:56:41;7.73;;;2.37;;
20181;SDS011;10250;50.756;6.172;2023-01-19T05:58:42;10.43;;;2.83;;
20181;SDS011;10250;50.756;6.172;2023-01-19T06:00:43;8.63;;;2.33;;
20181;SDS011;10250;50.756;6.172;2023-01-19T06:02:43;10.50;;;2.50;;
20181;SDS011;10250;50.756;6.172;2023-01-19T06:04:47;12.53;;;3.00;;
20181;SDS011;10250;50.756;6.172;2023-01-19T06:06:48;15.80;;;2.60;;
20181;SDS011;10250;50.756;6.172;2023-01-19T06:08:49;9.00;;;2.63;;
20181;SDS011;10250;50.756;6.172;2023-01-19T06:10:50;7.57;;;2.57;;
20181;SDS011;10250;50.756;6.172;2023-01-19T06:12:51;13.40;;;2.97;;
20181;SDS011;10250;50.756;6.172;2023-01-19T06:14:52;11.10;;;3.00;;
20181;SDS011;10250;50.756;6.172;2023-01-19T06:16:53;11.97;;;2.90;;
20181;SDS011;10250;50.756;6.172;2023-01-19T06:18:54;11.90;;;3.27;;
20181;SDS011;10250;50.756;6.172;2023-01-19T06:20:55;7.17;;;2.47;;
20181;SDS011;10250;50.756;6.172;2023-01-19T06:22:59;7.97;;;2.50;;
20181;SDS011;10250;50.756;6.172;2023-01-19T06:25:00;8.03;;;2.30;;
20181;SDS011;10250;50.756;6.172;2023-01-19T06:27:01;14.17;;;3.33;;
20181;SDS011;10250;50.756;6.172;2023-01-19T06:29:02;9.07;;;2.67;;
20181;SDS011;10250;50.756;6.172;2023-01-19T06:31:03;10.63;;;2.63;;
20181;SDS011;10250;50.756;6.172;2023-01-19T06:33:04;11.07;;;2.40;;
20181;SDS011;10250;50.756;6.172;2023-01-19T06:35:05;9.70;;;2.60;;
20181;SDS011;10250;50.756;6.172;2023-01-19T06:37:06;10.70;;;2.57;;
20181;SDS011;10250;50.756;6.172;2023-01-19T06:39:08;11.23;;;2.83;;
20181;SDS011;10250;50.756;6.172;2023-01-19T06:41:09;8.57;;;2.77;;
20181;SDS011;10250;50.756;6.172;2023-01-19T06:43:10;11.07;;;2.93;;
20181;SDS011;10250;50.756;6.172;2023-01-19T06:45:11;11.57;;;3.00;;
20181;SDS011;10250;50.756;6.172;2023-01-19T06:47:13;11.73;;;2.43;;
20181;SDS011;10250;50.756;6.172;2023-01-19T06:49:14;12.43;;;2.80;;
20181;SDS011;10250;50.756;6.172;2023-01-19T06:51:15;13.47;;;2.80;;
20181;SDS011;10250;50.756;6.172;2023-01-19T06:53:16;18.17;;;3.43;;
20181;SDS011;10250;50.756;6.172;2023-01-19T06:55:18;8.50;;;2.33;;
20181;SDS011;10250;50.756;6.172;2023-01-19T06:57:19;7.93;;;2.43;;
20181;SDS011;10250;50.756;6.172;2023-01-19T06:59:20;11.57;;;2.77;;
20181;SDS011;10250;50.756;6.172;2023-01-19T07:01:21;10.83;;;2.80;;
20181;SDS011;10250;50.756;6.172;2023-01-19T07:03:22;12.00;;;2.67;;
20181;SDS011;10250;50.756;6.172;2023-01-19T07:05:23;13.03;;;3.27;;
20181;SDS011;10250;50.756;6.172;2023-01-19T07:07:24;12.33;;;3.20;;
20181;SDS011;10250;50.756;6.172;2023-01-19T07:09:25;11.17;;;2.83;;
20181;SDS011;10250;50.756;6.172;2023-01-19T07:11:26;11.93;;;3.40;;
20181;SDS011;10250;50.756;6.172;2023-01-19T07:13:27;12.03;;;2.83;;
20181;SDS011;10250;50.756;6.172;2023-01-19T07:15:28;13.60;;;3.10;;
20181;SDS011;10250;50.756;6.172;2023-01-19T07:17:29;11.67;;;3.37;;
20181;SDS011;10250;50.756;6.172;2023-01-19T07:19:30;13.00;;;3.20;;
20181;SDS011;10250;50.756;6.172;2023-01-19T07:21:33;10.20;;;3.00;;
20181;SDS011;10250;50.756;6.172;2023-01-19T07:23:34;12.87;;;3.07;;
20181;SDS011;10250;50.756;6.172;2023-01-19T07:25:37;13.57;;;3.47;;
20181;SDS011;10250;50.756;6.172;2023-01-19T07:27:38;11.30;;;3.07;;
20181;SDS011;10250;50.756;6.172;2023-01-19T07:29:39;14.73;;;3.07;;
20181;SDS011;10250;50.756;6.172;2023-01-19T07:31:41;13.03;;;3.43;;
20181;SDS011;10250;50.756;6.172;2023-01-19T07:33:42;11.93;;;3.30;;
20181;SDS011;10250;50.756;6.172;2023-01-19T07:35:49;11.63;;;2.73;;
20181;SDS011;10250;50.756;6.172;2023-01-19T07:37:51;10.90;;;2.53;;
20181;SDS011;10250;50.756;6.172;2023-01-19T07:39:52;14.30;;;3.80;;
20181;SDS011;10250;50.756;6.172;2023-01-19T07:41:53;13.67;;;3.80;;
20181;SDS011;10250;50.756;6.172;2023-01-19T07:43:57;10.63;;;3.13;;
20181;SDS011;10250;50.756;6.172;2023-01-19T07:45:58;11.60;;;2.77;;
20181;SDS011;10250;50.756;6.172;2023-01-19T07:47:59;10.47;;;2.83;;
20181;SDS011;10250;50.756;6.172;2023-01-19T07:50:00;10.77;;;2.97;;
20181;SDS011;10250;50.756;6.172;2023-01-19T07:52:02;8.83;;;2.47;;
20181;SDS011;10250;50.756;6.172;2023-01-19T07:54:03;9.63;;;2.83;;
20181;SDS011;10250;50.756;6.172;2023-01-19T07:56:04;12.57;;;3.40;;
20181;SDS011;10250;50.756;6.172;2023-01-19T07:58:06;12.20;;;3.70;;
20181;SDS011;10250;50.756;6.172;2023-01-19T08:00:07;17.53;;;4.27;;
20181;SDS011;10250;50.756;6.172;2023-01-19T08:02:09;13.23;;;3.43;;
20181;SDS011;10250;50.756;6.172;2023-01-19T08:04:10;11.23;;;3.27;;
20181;SDS011;10250;50.756;6.172;2023-01-19T08:06:18;12.40;;;3.37;;
20181;SDS011;10250;50.756;6.172;2023-01-19T08:08:20;12.30;;;3.03;;
20181;SDS011;10250;50.756;6.172;2023-01-19T08:10:21;14.53;;;3.50;;
20181;SDS011;10250;50.756;6.172;2023-01-19T08:12:24;11.43;;;2.90;;
20181;SDS011;10250;50.756;6.172;2023-01-19T08:14:25;12.67;;;3.10;;
20181;SDS011;10250;50.756;6.172;2023-01-19T08:16:26;10.17;;;2.77;;
20181;SDS011;10250;50.756;6.172;2023-01-19T08:18:27;12.73;;;3.30;;
20181;SDS011;10250;50.756;6.172;2023-01-19T08:20:28;9.83;;;2.90;;
20181;SDS011;10250;50.756;6.172;2023-01-19T08:22:29;11.30;;;2.80;;
20181;SDS011;10250;50.756;6.172;2023-01-19T08:24:30;11.47;;;3.27;;
20181;SDS011;10250;50.756;6.172;2023-01-19T08:26:32;12.17;;;3.17;;
20181;SDS011;10250;50.756;6.172;2023-01-19T08:28:34;13.97;;;3.10;;
20181;SDS011;10250;50.756;6.172;2023-01-19T08:30:38;14.07;;;3.73;;
20181;SDS011;10250;50.756;6.172;2023-01-19T08:32:42;9.93;;;3.00;;
20181;SDS011;10250;50.756;6.172;2023-01-19T08:34:43;10.43;;;2.90;;
20181;SDS011;10250;50.756;6.172;2023-01-19T08:36:44;9.87;;;2.97;;
20181;SDS011;10250;50.756;6.172;2023-01-19T08:38:45;11.87;;;3.23;;
20181;SDS011;10250;50.756;6.172;2023-01-19T08:40:47;11.33;;;3.13;;
20181;SDS011;10250;50.756;6.172;2023-01-19T08:42:48;11.60;;;3.47;;
20181;SDS011;10250;50.756;6.172;2023-01-19T08:44:49;15.53;;;3.57;;
20181;SDS011;10250;50.756;6.172;2023-01-19T08:46:50;17.87;;;3.77;;
20181;SDS011;10250;50.756;6.172;2023-01-19T08:48:51;11.50;;;3.27;;
20181;SDS011;10250;50.756;6.172;2023-01-19T08:50:52;9.67;;;2.60;;
20181;SDS011;10250;50.756;6.172;2023-01-19T08:52:57;13.20;;;3.60;;
20181;SDS011;10250;50.756;6.172;2023-01-19T08:54:58;17.30;;;3.23;;
20181;SDS011;10250;50.756;6.172;2023-01-19T08:56:59;11.57;;;3.20;;
20181;SDS011;10250;50.756;6.172;2023-01-19T08:59:00;15.47;;;3.60;;
20181;SDS011;10250;50.756;6.172;2023-01-19T09:01:01;10.53;;;3.03;;
20181;SDS011;10250;50.756;6.172;2023-01-19T09:03:03;12.67;;;3.20;;
20181;SDS011;10250;50.756;6.172;2023-01-19T09:05:04;11.40;;;2.77;;
20181;SDS011;10250;50.756;6.172;2023-01-19T09:07:05;17.03;;;4.17;;
20181;SDS011;10250;50.756;6.172;2023-01-19T09:09:06;12.40;;;3.53;;
20181;SDS011;10250;50.756;6.172;2023-01-19T09:11:10;11.97;;;3.20;;
20181;SDS011;10250;50.756;6.172;2023-01-19T09:13:12;13.70;;;3.83;;
20181;SDS011;10250;50.756;6.172;2023-01-19T09:15:14;14.83;;;4.50;;
20181;SDS011;10250;50.756;6.172;2023-01-19T09:17:15;15.53;;;3.43;;
20181;SDS011;10250;50.756;6.172;2023-01-19T09:19:17;17.20;;;5.03;;
20181;SDS011;10250;50.756;6.172;2023-01-19T09:21:18;15.17;;;3.90;;
20181;SDS011;10250;50.756;6.172;2023-01-19T09:23:19;13.10;;;3.80;;
20181;SDS011;10250;50.756;6.172;2023-01-19T09:25:21;11.13;;;3.40;;
20181;SDS011;10250;50.756;6.172;2023-01-19T09:27:22;12.93;;;3.20;;
20181;SDS011;10250;50.756;6.172;2023-01-19T09:29:23;12.37;;;3.77;;
20181;SDS011;10250;50.756;6.172;2023-01-19T09:31:24;15.40;;;4.27;;
20181;SDS011;10250;50.756;6.172;2023-01-19T09:33:25;12.93;;;3.63;;
20181;SDS011;10250;50.756;6.172;2023-01-19T09:35:26;12.23;;;3.80;;
20181;SDS011;10250;50.756;6.172;2023-01-19T09:37:27;12.33;;;3.57;;
20181;SDS011;10250;50.756;6.172;2023-01-19T09:39:28;23.50;;;5.33;;
20181;SDS011;10250;50.756;6.172;2023-01-19T09:41:29;17.63;;;4.40;;
20181;SDS011;10250;50.756;6.172;2023-01-19T09:43:43;19.13;;;6.33;;
20181;SDS011;10250;50.756;6.172;2023-01-19T09:45:50;19.67;;;4.57;;
20181;SDS011;10250;50.756;6.172;2023-01-19T09:47:53;27.03;;;6.60;;
20181;SDS011;10250;50.756;6.172;2023-01-19T09:49:56;31.43;;;9.47;;
20181;SDS011;10250;50.756;6.172;2023-01-19T09:51:58;28.03;;;8.00;;
20181;SDS011;10250;50.756;6.172;2023-01-19T09:54:19;22.73;;;6.93;;
20181;SDS011;10250;50.756;6.172;2023-01-19T09:56:21;17.00;;;4.67;;
20181;SDS011;10250;50.756;6.172;2023-01-19T09:58:23;19.50;;;4.83;;
20181;SDS011;10250;50.756;6.172;2023-01-19T10:00:24;16.23;;;4.57;;
20181;SDS011;10250;50.756;6.172;2023-01-19T10:02:37;13.67;;;3.70;;
20181;SDS011;10250;50.756;6.172;2023-01-19T10:04:40;16.30;;;3.93;;
20181;SDS011;10250;50.756;6.172;2023-01-19T10:06:42;14.97;;;4.93;;
20181;SDS011;10250;50.756;6.172;2023-01-19T10:08:46;17.50;;;5.17;;
20181;SDS011;10250;50.756;6.172;2023-01-19T10:10:53;13.47;;;3.40;;
20181;SDS011;10250;50.756;6.172;2023-01-19T10:12:56;15.80;;;4.37;;
20181;SDS011;10250;50.756;6.172;2023-01-19T10:25:51;13.50;;;3.60;;
20181;SDS011;10250;50.756;6.172;2023-01-19T10:27:54;16.43;;;5.00;;
20181;SDS011;10250;50.756;6.172;2023-01-19T10:29:55;17.23;;;5.23;;
20181;SDS011;10250;50.756;6.172;2023-01-19T10:32:00;14.83;;;4.10;;
20181;SDS011;10250;50.756;6.172;2023-01-19T10:34:03;16.90;;;4.90;;
20181;SDS011;10250;50.756;6.172;2023-01-19T10:36:05;16.30;;;3.83;;
20181;SDS011;10250;50.756;6.172;2023-01-19T10:38:06;12.93;;;3.57;;
20181;SDS011;10250;50.756;6.172;2023-01-19T10:42:14;16.43;;;4.23;;
20181;SDS011;10250;50.756;6.172;2023-01-19T10:44:22;19.47;;;4.27;;
20181;SDS011;10250;50.756;6.172;2023-01-19T10:48:34;16.57;;;4.60;;
20181;SDS011;10250;50.756;6.172;2023-01-19T10:50:36;18.10;;;5.30;;
20181;SDS011;10250;50.756;6.172;2023-01-19T10:52:40;12.23;;;3.97;;
20181;SDS011;10250;50.756;6.172;2023-01-19T10:54:43;17.47;;;3.57;;
20181;SDS011;10250;50.756;6.172;2023-01-19T10:56:54;16.73;;;4.47;;
20181;SDS011;10250;50.756;6.172;2023-01-19T10:58:57;15.23;;;4.93;;
20181;SDS011;10250;50.756;6.172;2023-01-19T11:01:12;16.83;;;4.73;;
20181;SDS011;10250;50.756;6.172;2023-01-19T11:03:21;18.33;;;5.83;;
20181;SDS011;10250;50.756;6.172;2023-01-19T11:05:27;14.57;;;3.77;;
20181;SDS011;10250;50.756;6.172;2023-01-19T11:07:29;15.20;;;4.40;;
20181;SDS011;10250;50.756;6.172;2023-01-19T11:09:31;13.40;;;3.80;;
20181;SDS011;10250;50.756;6.172;2023-01-19T11:11:32;15.33;;;4.23;;
20181;SDS011;10250;50.756;6.172;2023-01-19T11:13:40;15.50;;;4.67;;
20181;SDS011;10250;50.756;6.172;2023-01-19T11:17:52;16.47;;;3.87;;
20181;SDS011;10250;50.756;6.172;2023-01-19T11:19:57;16.63;;;4.00;;
20181;SDS011;10250;50.756;6.172;2023-01-19T11:24:15;14.67;;;4.60;;
20181;SDS011;10250;50.756;6.172;2023-01-19T11:28:34;20.20;;;4.50;;
20181;SDS011;10250;50.756;6.172;2023-01-19T11:30:36;13.43;;;3.53;;
20181;SDS011;10250;50.756;6.172;2023-01-19T11:32:37;20.43;;;4.93;;
20181;SDS011;10250;50.756;6.172;2023-01-19T11:34:38;15.53;;;4.57;;
20181;SDS011;10250;50.756;6.172;2023-01-19T11:36:39;12.67;;;3.57;;
20181;SDS011;10250;50.756;6.172;2023-01-19T11:38:41;16.37;;;4.37;;
20181;SDS011;10250;50.756;6.172;2023-01-19T11:40:49;13.60;;;4.13;;
20181;SDS011;10250;50.756;6.172;2023-01-19T11:42:51;16.27;;;5.43;;
20181;SDS011;10250;50.756;6.172;2023-01-19T11:47:00;13.73;;;3.50;;
20181;SDS011;10250;50.756;6.172;2023-01-19T11:49:03;15.40;;;3.70;;
20181;SDS011;10250;50.756;6.172;2023-01-19T11:51:05;15.50;;;3.60;;
20181;SDS011;10250;50.756;6.172;2023-01-19T11:57:16;17.73;;;4.33;;
20181;SDS011;10250;50.756;6.172;2023-01-19T11:59:19;13.87;;;3.53;;
20181;SDS011;10250;50.756;6.172;2023-01-19T12:01:21;13.43;;;3.67;;
20181;SDS011;10250;50.756;6.172;2023-01-19T12:05:30;14.37;;;3.80;;
20181;SDS011;10250;50.756;6.172;2023-01-19T12:07:32;16.67;;;4.00;;
20181;SDS011;10250;50.756;6.172;2023-01-19T12:09:39;17.37;;;3.83;;
20181;SDS011;10250;50.756;6.172;2023-01-19T12:12:03;14.33;;;3.17;;
20181;SDS011;10250;50.756;6.172;2023-01-19T12:14:03;20.50;;;6.17;;
20181;SDS011;10250;50.756;6.172;2023-01-19T12:16:08;15.03;;;3.00;;
20181;SDS011;10250;50.756;6.172;2023-01-19T12:18:24;16.17;;;4.03;;
20181;SDS011;10250;50.756;6.172;2023-01-19T12:20:26;12.87;;;3.13;;
20181;SDS011;10250;50.756;6.172;2023-01-19T12:22:28;16.20;;;4.77;;
20181;SDS011;10250;50.756;6.172;2023-01-19T12:24:38;13.10;;;3.20;;
20181;SDS011;10250;50.756;6.172;2023-01-19T12:26:53;9.30;;;2.67;;
20181;SDS011;10250;50.756;6.172;2023-01-19T12:28:57;14.83;;;2.97;;
20181;SDS011;10250;50.756;6.172;2023-01-19T12:31:00;12.70;;;3.77;;
20181;SDS011;10250;50.756;6.172;2023-01-19T12:33:20;8.37;;;2.47;;
20181;SDS011;10250;50.756;6.172;2023-01-19T12:37:41;11.23;;;2.80;;
20181;SDS011;10250;50.756;6.172;2023-01-19T12:39:46;10.17;;;2.67;;
20181;SDS011;10250;50.756;6.172;2023-01-19T12:41:48;9.63;;;2.20;;
20181;SDS011;10250;50.756;6.172;2023-01-19T12:46:23;10.73;;;2.77;;
20181;SDS011;10250;50.756;6.172;2023-01-19T12:48:26;11.13;;;3.17;;
20181;SDS011;10250;50.756;6.172;2023-01-19T12:50:29;13.00;;;3.40;;
20181;SDS011;10250;50.756;6.172;2023-01-19T12:52:32;16.17;;;3.73;;
20181;SDS011;10250;50.756;6.172;2023-01-19T12:54:34;8.70;;;2.50;;
20181;SDS011;10250;50.756;6.172;2023-01-19T12:56:35;9.87;;;3.20;;
20181;SDS011;10250;50.756;6.172;2023-01-19T12:58:37;14.10;;;3.20;;
20181;SDS011;10250;50.756;6.172;2023-01-19T13:00:39;9.80;;;2.87;;
20181;SDS011;10250;50.756;6.172;2023-01-19T13:02:44;10.47;;;2.77;;